Time;durP1;ratioP1;P1;durP2;ratioP2;P2;SDS_P1;SDS_P2;PMS_P1;PMS_P2;Temp;Humidity;BMP_temperature;BMP_pressure;BME280_temperature;BME280_humidity;BME280_pressure;Samples;Min_cycle;Max_cycle;Signal;HPM_P1;HPM_P2
2021/05/06 00:02:36;;;;;;;12.05;4.28;;;4.70;92.00;;;;;;5005176;28;20080;-46
2021/05/06 00:08:04;;;;;;;19.20;4.88;;;4.70;92.20;;;;;;5006323;28;20565;-46
2021/05/06 00:11:02;;;;;;;15.45;4.60;;;4.70;91.90;;;;;;5015735;28;20509;-49
2021/05/06 00:32:36;;;;;;;12.57;5.05;;;4.70;91.70;;;;;;5004298;28;20076;-47
2021/05/06 00:35:04;;;;;;;14.40;4.63;;;4.70;91.50;;;;;;5005239;28;20061;-46
2021/05/06 00:37:38;;;;;;;13.63;4.50;;;4.70;91.50;;;;;;5039965;28;20785;-46
2021/05/06 00:40:09;;;;;;;12.90;4.80;;;4.70;91.70;;;;;;5048149;28;20040;-46
2021/05/06 00:56:41;;;;;;;7.78;4.07;;;4.60;92.10;;;;;;5048769;28;20049;-44
2021/05/06 01:01:58;;;;;;;13.55;5.03;;;4.50;92.20;;;;;;5050076;28;20048;-48
2021/05/06 01:12:48;;;;;;;12.57;5.13;;;4.30;92.40;;;;;;4984256;28;20146;-47
2021/05/06 01:15:17;;;;;;;15.68;5.30;;;4.40;93.00;;;;;;4985065;28;20205;-46
2021/05/06 01:17:46;;;;;;;10.85;5.43;;;4.30;93.20;;;;;;4965886;28;20561;-47
2021/05/06 01:20:14;;;;;;;16.33;5.40;;;4.30;93.20;;;;;;4948794;28;20066;-45
2021/05/06 01:22:44;;;;;;;10.82;5.10;;;4.20;93.30;;;;;;4982054;28;20151;-46
2021/05/06 01:25:12;;;;;;;15.13;5.97;;;4.20;93.20;;;;;;4984916;28;20765;-44
2021/05/06 01:30:27;;;;;;;12.32;5.38;;;4.10;93.60;;;;;;4984777;28;20069;-46
2021/05/06 01:33:12;;;;;;;9.45;5.68;;;4.10;93.80;;;;;;4987823;28;20074;-46
2021/05/06 01:35:51;;;;;;;13.18;5.60;;;4.10;94.10;;;;;;4984392;28;20645;-46
2021/05/06 01:38:37;;;;;;;11.23;5.82;;;4.00;93.80;;;;;;4967932;28;20181;-45
2021/05/06 01:46:40;;;;;;;12.02;5.38;;;4.00;94.30;;;;;;5065837;28;20064;-47
2021/05/06 02:00:40;;;;;;;10.52;5.35;;;4.00;94.40;;;;;;5065567;28;20059;-47
2021/05/06 02:03:26;;;;;;;7.68;5.25;;;4.00;94.70;;;;;;5051374;28;20247;-45
2021/05/06 02:05:54;;;;;;;8.98;5.35;;;4.10;94.20;;;;;;5050233;28;20428;-45
2021/05/06 02:08:23;;;;;;;8.40;4.90;;;4.20;94.10;;;;;;5052257;28;20051;-45
2021/05/06 02:10:58;;;;;;;9.88;4.93;;;4.20;93.70;;;;;;5052624;28;20058;-47
2021/05/06 02:13:43;;;;;;;10.57;4.95;;;4.30;93.50;;;;;;5076198;28;20044;-46
2021/05/06 02:16:21;;;;;;;6.40;4.35;;;4.40;93.40;;;;;;5069323;28;20056;-45
2021/05/06 02:18:50;;;;;;;7.13;4.35;;;4.40;93.10;;;;;;5074852;28;20049;-45
2021/05/06 02:21:20;;;;;;;5.43;4.00;;;4.40;93.00;;;;;;5070355;28;20052;-45
2021/05/06 02:23:57;;;;;;;9.05;4.40;;;4.40;93.00;;;;;;5052187;28;20087;-47
2021/05/06 02:26:24;;;;;;;5.50;4.15;;;4.40;92.80;;;;;;5070495;28;20080;-45
2021/05/06 02:28:56;;;;;;;6.53;3.75;;;4.40;92.60;;;;;;5041842;28;20140;-46
2021/05/06 02:31:27;;;;;;;5.50;3.40;;;4.30;92.40;;;;;;5070387;28;20831;-46
2021/05/06 02:33:53;;;;;;;8.07;4.72;;;4.30;92.30;;;;;;5069741;28;20439;-46
2021/05/06 02:36:20;;;;;;;6.72;3.72;;;4.30;92.30;;;;;;5080004;28;20056;-46
2021/05/06 02:38:49;;;;;;;6.75;3.83;;;4.20;92.30;;;;;;5086869;28;20712;-48
2021/05/06 02:41:18;;;;;;;8.68;4.30;;;4.10;92.20;;;;;;5090471;28;20051;-47
2021/05/06 02:43:44;;;;;;;8.38;4.45;;;4.10;92.40;;;;;;5077660;28;20181;-45
2021/05/06 02:46:14;;;;;;;6.15;3.75;;;4.00;92.80;;;;;;5067171;28;20513;-43
2021/05/06 02:48:43;;;;;;;8.07;3.92;;;4.00;92.80;;;;;;5069130;28;20694;-45
2021/05/06 02:51:09;;;;;;;6.68;4.38;;;4.00;93.10;;;;;;5070541;28;20052;-45
2021/05/06 02:53:38;;;;;;;6.53;4.38;;;3.80;92.80;;;;;;5069358;28;20186;-45
2021/05/06 02:56:16;;;;;;;6.45;4.63;;;3.80;93.00;;;;;;5069673;28;20575;-45
2021/05/06 02:58:58;;;;;;;8.38;5.05;;;3.70;93.10;;;;;;5068442;28;20052;-44
2021/05/06 03:04:14;;;;;;;7.30;4.60;;;3.60;94.10;;;;;;5076186;28;20052;-45
2021/05/06 03:06:53;;;;;;;5.55;4.53;;;3.50;93.50;;;;;;5069413;28;20083;-46
2021/05/06 03:22:43;;;;;;;7.82;5.00;;;3.40;94.80;;;;;;5070025;28;20122;-47
2021/05/06 03:25:14;;;;;;;9.02;5.38;;;3.30;94.60;;;;;;5087456;28;20052;-46
2021/05/06 03:27:52;;;;;;;9.20;5.45;;;3.40;94.60;;;;;;5077724;28;20089;-46
2021/05/06 04:17:31;;;;;;;11.35;7.35;;;3.60;96.10;;;;;;4866264;29;20101;-46
2021/05/06 04:36:57;;;;;;;7.07;4.53;;;3.70;97.40;;;;;;4833504;29;20064;-45
2021/05/06 04:39:32;;;;;;;9.13;2.53;;;3.70;96.40;;;;;;4834119;29;20058;-45
2021/05/06 05:07:08;;;;;;;10.95;6.53;;;4.20;96.80;;;;;;4907654;29;20052;-43
2021/05/06 05:13:40;;;;;;;10.43;5.03;;;5.00;94.90;;;;;;5164568;27;20355;-43
2021/05/06 05:24:33;;;;;;;10.07;5.15;;;5.10;94.10;;;;;;5164479;27;20080;-40
2021/05/06 05:27:00;;;;;;;8.70;4.38;;;5.20;94.50;;;;;;5164894;27;20078;-40
2021/05/06 05:29:27;;;;;;;7.13;4.10;;;5.50;94.20;;;;;;5164730;27;20045;-40
2021/05/06 05:31:56;;;;;;;5.85;3.47;;;5.70;93.10;;;;;;5164419;27;20410;-41
2021/05/06 05:34:29;;;;;;;6.50;3.50;;;6.00;93.40;;;;;;5165212;27;20050;-41
2021/05/06 05:37:00;;;;;;;7.45;2.97;;;6.20;92.70;;;;;;5163656;27;20161;-41
2021/05/06 05:39:38;;;;;;;4.80;2.50;;;6.30;92.20;;;;;;5164962;27;20078;-41
2021/05/06 05:42:27;;;;;;;6.30;2.47;;;6.50;91.20;;;;;;5164839;27;20081;-41
2021/05/06 05:56:17;;;;;;;5.65;2.67;;;7.20;90.00;;;;;;5062716;28;20072;-39
2021/05/06 05:58:49;;;;;;;5.28;2.65;;;7.30;90.20;;;;;;5079377;28;20062;-38
2021/05/06 06:01:15;;;;;;;3.60;2.72;;;7.30;87.70;;;;;;5078819;28;20055;-39
2021/05/06 06:03:42;;;;;;;3.95;2.90;;;7.50;89.30;;;;;;5078057;28;20056;-39
2021/05/06 06:06:12;;;;;;;5.88;3.17;;;7.60;88.90;;;;;;5076030;28;20056;-40
2021/05/06 06:08:41;;;;;;;5.93;3.65;;;7.60;87.10;;;;;;5079695;28;20052;-40
2021/05/06 06:11:09;;;;;;;43.42;32.08;;;7.90;89.20;;;;;;5071775;28;20112;-41
2021/05/06 06:13:38;;;;;;;59.15;47.38;;;8.10;87.70;;;;;;5091743;28;20056;-41
2021/05/06 06:16:12;;;;;;;18.45;14.70;;;8.50;88.40;;;;;;5099268;28;20518;-41
2021/05/06 06:23:51;;;;;;;7.72;5.70;;;7.70;88.50;;;;;;5072072;28;20155;-40
2021/05/06 06:26:21;;;;;;;7.90;5.05;;;7.60;88.40;;;;;;5128101;27;20536;-42
2021/05/06 06:28:49;;;;;;;8.18;5.60;;;7.80;86.80;;;;;;5147776;27;20137;-40
2021/05/06 06:31:26;;;;;;;6.93;4.85;;;8.00;88.70;;;;;;5150310;27;20686;-40
2021/05/06 06:33:52;;;;;;;7.63;5.20;;;8.30;87.10;;;;;;5150704;27;20047;-40
2021/05/06 06:36:21;;;;;;;6.50;4.43;;;8.30;85.00;;;;;;5147813;27;20102;-39
2021/05/06 06:38:49;;;;;;;109.90;95.60;;;8.40;85.60;;;;;;5161624;27;20500;-40
2021/05/06 06:41:21;;;;;;;18.23;15.05;;;8.70;84.70;;;;;;5151288;27;20050;-39
2021/05/06 06:43:56;;;;;;;13.65;10.63;;;8.90;82.70;;;;;;5149409;27;20096;-40
2021/05/06 06:46:25;;;;;;;11.00;8.82;;;8.80;80.70;;;;;;5150442;27;20055;-39
2021/05/06 06:48:54;;;;;;;7.13;4.72;;;8.90;81.60;;;;;;5150864;27;20038;-40
2021/05/06 06:51:24;;;;;;;8.95;3.85;;;9.20;82.90;;;;;;5160424;27;20043;-39
2021/05/06 06:53:55;;;;;;;13.13;8.60;;;9.20;78.60;;;;;;5154144;27;20443;-40
2021/05/06 06:56:24;;;;;;;18.85;14.82;;;9.60;80.30;;;;;;5150173;27;20080;-40
2021/05/06 06:58:52;;;;;;;28.17;22.95;;;9.80;78.80;;;;;;5149309;27;20494;-39
2021/05/06 07:01:20;;;;;;;24.88;19.67;;;10.00;79.70;;;;;;5149752;27;20057;-39
2021/05/06 07:03:47;;;;;;;5.45;3.38;;;10.30;79.60;;;;;;5149261;27;20038;-39
2021/05/06 07:06:16;;;;;;;5.05;3.20;;;10.90;76.70;;;;;;5149227;27;20129;-39
2021/05/06 07:08:46;;;;;;;13.65;7.28;;;10.70;74.70;;;;;;5149064;27;20058;-40
2021/05/06 07:11:15;;;;;;;4.32;2.60;;;10.60;77.00;;;;;;5149036;27;20055;-41
2021/05/06 07:13:52;;;;;;;4.32;2.65;;;10.70;75.30;;;;;;5149682;27;20061;-39
2021/05/06 07:16:21;;;;;;;6.18;3.30;;;10.90;74.30;;;;;;5148524;27;20057;-40
2021/05/06 07:18:51;;;;;;;5.18;3.00;;;10.80;71.50;;;;;;5148192;27;20053;-40
2021/05/06 07:21:17;;;;;;;6.10;3.33;;;10.80;71.90;;;;;;5148935;27;20141;-41
2021/05/06 07:23:45;;;;;;;5.20;3.40;;;11.00;74.70;;;;;;5149203;27;20123;-40
2021/05/06 07:26:14;;;;;;;4.85;2.97;;;11.20;74.20;;;;;;5149130;27;20051;-39
2021/05/06 07:28:44;;;;;;;5.07;2.70;;;10.90;71.90;;;;;;5149395;27;20059;-40
2021/05/06 07:31:12;;;;;;;50.38;44.70;;;11.40;73.40;;;;;;5147764;27;20042;-42
2021/05/06 07:33:40;;;;;;;22.13;17.05;;;11.40;73.30;;;;;;5148114;27;20537;-39
2021/05/06 07:36:09;;;;;;;5.95;3.05;;;11.20;74.60;;;;;;5146201;27;20047;-39
2021/05/06 07:38:38;;;;;;;5.43;2.55;;;11.40;71.80;;;;;;5149069;27;20085;-39
2021/05/06 07:41:07;;;;;;;7.03;3.78;;;11.10;69.90;;;;;;5147963;27;20502;-40
2021/05/06 07:43:38;;;;;;;4.47;2.58;;;11.30;71.40;;;;;;5148622;27;20055;-39
2021/05/06 07:46:11;;;;;;;5.63;3.17;;;11.50;70.00;;;;;;5152586;27;20050;-39
2021/05/06 07:48:39;;;;;;;8.63;6.28;;;11.50;69.60;;;;;;5149307;27;20042;-39
2021/05/06 07:51:07;;;;;;;5.20;3.13;;;12.10;71.50;;;;;;5152241;27;20789;-39
2021/05/06 07:53:50;;;;;;;5.30;3.40;;;11.90;68.60;;;;;;5127153;27;20170;-39
2021/05/06 07:56:20;;;;;;;6.18;2.83;;;11.80;66.30;;;;;;5136623;27;20131;-40
2021/05/06 07:58:47;;;;;;;7.85;3.33;;;12.10;70.60;;;;;;5151371;27;20752;-40
2021/05/06 08:01:15;;;;;;;7.55;3.70;;;12.40;69.40;;;;;;5148188;27;20855;-40
2021/05/06 08:03:47;;;;;;;21.08;15.85;;;12.40;64.20;;;;;;5146980;27;20078;-40
2021/05/06 08:06:14;;;;;;;7.88;3.85;;;12.70;64.20;;;;;;5147608;27;20045;-40
2021/05/06 08:08:45;;;;;;;8.13;3.83;;;13.10;64.60;;;;;;5145259;27;20074;-40
2021/05/06 08:11:14;;;;;;;6.25;2.30;;;13.10;66.40;;;;;;5147919;27;20047;-40
2021/05/06 08:13:47;;;;;;;6.43;3.70;;;13.00;60.20;;;;;;5166318;27;20693;-40
2021/05/06 08:16:18;;;;;;;5.05;2.85;;;12.60;63.70;;;;;;5167924;27;20058;-40
2021/05/06 08:18:45;;;;;;;7.75;3.30;;;12.10;64.30;;;;;;5165655;27;20057;-40
2021/05/06 08:21:18;;;;;;;11.43;7.63;;;12.70;63.60;;;;;;5159082;27;20054;-41
2021/05/06 08:23:45;;;;;;;29.80;22.83;;;12.90;62.20;;;;;;5167437;27;20076;-41
2021/05/06 08:26:12;;;;;;;8.80;5.53;;;12.80;63.50;;;;;;5167833;27;20573;-41
2021/05/06 08:28:44;;;;;;;11.40;7.45;;;12.30;64.20;;;;;;5163076;27;20047;-40
2021/05/06 08:31:13;;;;;;;14.25;11.98;;;11.50;66.80;;;;;;5152915;27;20126;-41
2021/05/06 08:33:47;;;;;;;9.52;6.53;;;11.40;68.50;;;;;;5160929;27;20138;-40
2021/05/06 08:36:19;;;;;;;10.65;7.65;;;11.30;68.00;;;;;;5169040;27;20069;-39
2021/05/06 08:38:45;;;;;;;8.45;4.65;;;11.40;69.00;;;;;;5169225;27;20044;-39
2021/05/06 08:41:14;;;;;;;7.50;5.40;;;11.50;67.00;;;;;;5170719;27;20054;-39
2021/05/06 08:43:49;;;;;;;6.25;4.80;;;11.40;67.40;;;;;;5143965;27;20049;-39
2021/05/06 08:46:18;;;;;;;7.15;3.70;;;11.60;67.50;;;;;;5167253;27;20106;-39
2021/05/06 08:48:46;;;;;;;6.40;4.28;;;11.70;66.00;;;;;;5167092;27;20409;-39
2021/05/06 08:51:16;;;;;;;6.00;3.03;;;12.00;65.20;;;;;;5155672;27;20074;-39
2021/05/06 08:53:50;;;;;;;6.72;3.35;;;12.70;61.60;;;;;;5167063;27;20050;-39
2021/05/06 08:56:22;;;;;;;7.63;3.17;;;13.00;61.90;;;;;;5158321;27;20105;-40
2021/05/06 08:58:48;;;;;;;26.50;20.58;;;12.70;64.40;;;;;;5167665;27;20513;-41
2021/05/06 09:01:19;;;;;;;6.63;3.97;;;12.60;61.50;;;;;;5168318;27;20662;-40
2021/05/06 09:03:50;;;;;;;7.45;3.15;;;12.50;61.40;;;;;;5167689;27;20125;-41
2021/05/06 09:06:23;;;;;;;9.57;7.40;;;12.80;63.60;;;;;;5158265;27;20152;-41
2021/05/06 09:09:00;;;;;;;7.13;5.15;;;12.80;59.10;;;;;;5166164;27;20310;-41
2021/05/06 09:11:35;;;;;;;6.40;3.83;;;13.10;58.00;;;;;;5166252;27;20831;-42
2021/05/06 09:14:07;;;;;;;5.57;3.95;;;13.60;55.90;;;;;;5165648;27;20061;-41
2021/05/06 09:16:41;;;;;;;7.20;3.70;;;14.00;56.60;;;;;;5148193;27;20102;-43
2021/05/06 09:19:17;;;;;;;5.90;4.20;;;14.20;57.90;;;;;;5150219;27;20038;-43
2021/05/06 09:21:47;;;;;;;6.90;4.38;;;13.20;54.90;;;;;;5158905;27;20046;-43
2021/05/06 09:24:23;;;;;;;5.95;4.07;;;12.50;59.70;;;;;;5143868;27;20594;-44
2021/05/06 09:27:07;;;;;;;10.00;5.22;;;11.90;60.70;;;;;;5166664;27;20266;-47
2021/05/06 09:29:42;;;;;;;7.00;4.43;;;11.60;63.20;;;;;;5165631;27;20057;-43
2021/05/06 09:32:14;;;;;;;6.28;4.85;;;11.90;62.20;;;;;;5164127;27;20058;-46
2021/05/06 09:34:43;;;;;;;;;;;12.60;61.40;;;;;;5163374;27;20042;-47
2021/05/06 09:37:23;;;;;;;6.97;4.72;;;13.00;59.50;;;;;;5161735;27;19970;-44
2021/05/06 09:40:05;;;;;;;8.30;7.13;;;13.10;56.60;;;;;;5166725;27;20149;-44
2021/05/06 09:42:37;;;;;;;27.10;22.67;;;12.80;57.30;;;;;;5146806;27;20123;-44
2021/05/06 09:45:18;;;;;;;13.55;9.63;;;12.50;59.70;;;;;;5152645;27;20046;-44
2021/05/06 09:48:07;;;;;;;11.85;9.02;;;12.20;59.70;;;;;;5165412;27;20074;-45
2021/05/06 09:50:36;;;;;;;9.60;8.40;;;11.90;61.60;;;;;;5146259;27;20043;-45
2021/05/06 09:53:14;;;;;;;9.43;7.20;;;11.70;63.70;;;;;;5161815;27;20042;-43
2021/05/06 09:55:47;;;;;;;8.27;7.47;;;11.50;64.70;;;;;;5152278;27;20405;-48
2021/05/06 09:58:28;;;;;;;8.45;7.65;;;11.90;62.00;;;;;;5167148;27;20046;-45
2021/05/06 10:00:57;;;;;;;11.45;7.57;;;11.90;62.40;;;;;;5171596;27;20519;-44
2021/05/06 10:03:35;;;;;;;8.40;7.50;;;11.80;62.50;;;;;;5172149;27;20397;-47
2021/05/06 10:06:21;;;;;;;6.18;4.65;;;11.20;61.90;;;;;;5174877;27;20068;-46
2021/05/06 10:08:49;;;;;;;5.97;4.70;;;10.50;64.40;;;;;;5170284;27;20497;-43
2021/05/06 10:11:22;;;;;;;5.72;4.60;;;10.10;67.10;;;;;;5168133;27;20050;-46
2021/05/06 10:13:49;;;;;;;6.55;4.22;;;9.40;71.80;;;;;;5171771;27;20129;-45
2021/05/06 10:16:16;;;;;;;6.18;4.18;;;8.80;74.70;;;;;;5170996;27;20042;-48
2021/05/06 10:18:45;;;;;;;7.53;3.75;;;8.60;76.50;;;;;;5166872;27;20046;-44
2021/05/06 10:21:19;;;;;;;5.57;4.03;;;8.50;77.70;;;;;;5169186;27;20688;-44
2021/05/06 10:23:53;;;;;;;5.95;4.20;;;8.30;79.10;;;;;;5169493;27;20038;-47
2021/05/06 10:26:23;;;;;;;7.47;4.82;;;8.30;80.60;;;;;;5170524;27;20058;-48
2021/05/06 10:28:52;;;;;;;7.63;5.20;;;8.20;80.50;;;;;;5170126;27;20050;-49
2021/05/06 10:31:18;;;;;;;8.68;5.57;;;8.40;81.90;;;;;;5166678;27;20053;-46
2021/05/06 10:33:45;;;;;;;10.43;8.10;;;8.40;82.90;;;;;;5172195;27;20038;-42
2021/05/06 10:36:15;;;;;;;9.40;6.63;;;8.70;83.20;;;;;;5157600;27;20076;-46
2021/05/06 10:38:44;;;;;;;9.70;6.60;;;8.90;84.80;;;;;;5164811;27;20042;-46
2021/05/06 10:41:24;;;;;;;15.60;12.80;;;9.60;85.20;;;;;;5150889;27;20041;-45
2021/05/06 10:44:02;;;;;;;7.70;5.20;;;10.40;83.60;;;;;;5152637;27;20068;-43
2021/05/06 10:46:56;;;;;;;7.63;5.82;;;11.10;80.20;;;;;;5150508;27;20050;-44
2021/05/06 10:49:46;;;;;;;7.15;5.50;;;11.90;76.70;;;;;;5162857;27;20111;-43
2021/05/06 10:52:18;;;;;;;6.32;4.72;;;12.30;76.50;;;;;;5062238;28;20571;-44
2021/05/06 10:54:51;;;;;;;6.82;5.57;;;13.20;74.60;;;;;;5067560;28;20048;-45
2021/05/06 10:57:19;;;;;;;7.20;4.68;;;13.40;71.80;;;;;;5068107;28;20048;-46
2021/05/06 10:59:47;;;;;;;6.25;4.15;;;14.00;72.40;;;;;;5063430;28;20109;-45
2021/05/06 11:02:45;;;;;;;5.80;4.20;;;14.20;71.40;;;;;;5063314;28;20052;-45
2021/05/06 11:05:17;;;;;;;6.05;4.50;;;14.50;68.20;;;;;;5018628;28;20084;-46
2021/05/06 11:08:04;;;;;;;6.88;4.95;;;15.10;70.30;;;;;;5061115;28;20040;-46
2021/05/06 11:10:55;;;;;;;5.88;4.53;;;15.30;66.20;;;;;;5077214;28;20560;-45
2021/05/06 11:13:29;;;;;;;6.03;5.40;;;15.10;65.00;;;;;;5084648;28;20056;-46
2021/05/06 11:16:22;;;;;;;6.90;5.28;;;14.60;67.70;;;;;;5066658;28;20048;-46
2021/05/06 11:18:54;;;;;;;5.97;5.35;;;15.20;61.90;;;;;;5063442;28;20132;-45
2021/05/06 11:21:43;;;;;;;;;;;15.30;62.90;;;;;;5064834;28;20052;-44
2021/05/06 11:24:41;;;;;;;6.78;5.47;;;14.80;60.60;;;;;;5066442;28;20516;-44
2021/05/06 11:27:20;;;;;;;6.20;5.40;;;14.80;60.30;;;;;;4983098;28;20057;-44
2021/05/06 11:29:46;;;;;;;6.03;5.03;;;15.10;62.60;;;;;;5020116;28;20045;-44
2021/05/06 11:32:22;;;;;;;6.78;5.50;;;15.10;63.50;;;;;;5042334;28;20084;-45
2021/05/06 11:34:52;;;;;;;8.10;6.82;;;15.00;60.70;;;;;;5042955;28;20057;-44
2021/05/06 11:37:28;;;;;;;7.40;6.70;;;14.30;59.20;;;;;;5036539;28;20048;-46
2021/05/06 11:39:59;;;;;;;7.15;6.38;;;13.80;56.50;;;;;;5043472;28;20487;-47
2021/05/06 11:42:29;;;;;;;8.38;6.82;;;13.50;61.00;;;;;;5043057;28;20057;-46
2021/05/06 11:45:13;;;;;;;8.30;7.07;;;13.40;60.20;;;;;;5039229;28;20056;-43
2021/05/06 11:47:41;;;;;;;8.52;7.55;;;13.60;60.20;;;;;;5042432;28;20505;-42
2021/05/06 11:50:22;;;;;;;9.00;8.10;;;13.60;58.90;;;;;;5033939;28;20065;-44
2021/05/06 11:52:48;;;;;;;9.25;8.35;;;13.40;59.80;;;;;;5040934;28;20048;-41
2021/05/06 11:55:37;;;;;;;16.13;13.82;;;13.50;60.10;;;;;;5025059;28;20053;-43
2021/05/06 11:58:08;;;;;;;17.55;14.98;;;13.90;62.00;;;;;;5043205;28;20587;-44
2021/05/06 12:00:36;;;;;;;12.07;10.85;;;13.80;59.90;;;;;;5043700;28;20464;-44
2021/05/06 12:03:04;;;;;;;10.90;9.80;;;13.90;59.30;;;;;;5078201;27;20053;-45
2021/05/06 12:05:54;;;;;;;12.80;10.93;;;13.20;59.50;;;;;;5168056;27;20054;-44
2021/05/06 12:08:26;;;;;;;8.32;7.53;;;13.10;59.00;;;;;;5146293;27;20054;-47
2021/05/06 12:10:54;;;;;;;10.50;8.88;;;12.80;63.00;;;;;;5170306;27;20122;-42
2021/05/06 12:13:33;;;;;;;9.63;8.65;;;12.70;63.40;;;;;;5173438;27;20046;-46
2021/05/06 12:16:12;;;;;;;9.38;8.48;;;12.50;63.40;;;;;;5152154;27;20042;-44
2021/05/06 12:18:41;;;;;;;8.57;7.75;;;12.60;63.90;;;;;;5167897;27;20144;-46
2021/05/06 12:21:09;;;;;;;6.80;5.60;;;12.80;65.60;;;;;;5154556;27;20078;-44
2021/05/06 12:23:46;;;;;;;7.72;5.60;;;13.00;65.40;;;;;;5168726;27;20050;-47
2021/05/06 12:26:25;;;;;;;6.93;6.22;;;13.70;66.20;;;;;;5169137;27;20049;-43
2021/05/06 12:29:19;;;;;;;6.40;5.70;;;14.30;63.30;;;;;;5146820;27;20069;-43
2021/05/06 12:31:55;;;;;;;9.23;7.30;;;14.80;63.50;;;;;;5161474;27;20385;-44
2021/05/06 12:34:27;;;;;;;10.13;8.93;;;15.00;62.80;;;;;;5167982;27;20046;-46
2021/05/06 12:37:00;;;;;;;16.00;13.77;;;15.30;61.70;;;;;;5166819;27;20050;-48
2021/05/06 12:39:28;;;;;;;8.05;6.90;;;15.30;59.20;;;;;;5164887;27;20140;-44
2021/05/06 12:42:05;;;;;;;8.27;7.43;;;15.50;57.00;;;;;;5162605;27;20049;-48
2021/05/06 12:44:47;;;;;;;14.63;13.02;;;15.30;58.70;;;;;;5174025;27;20038;-47
2021/05/06 12:47:27;;;;;;;8.15;7.35;;;14.80;57.20;;;;;;5165427;27;20042;-47
2021/05/06 12:50:30;;;;;;;10.63;6.95;;;14.70;55.90;;;;;;5166648;27;20050;-46
2021/05/06 12:53:07;;;;;;;9.13;6.82;;;15.00;56.30;;;;;;5061875;28;20492;-49
2021/05/06 12:55:45;;;;;;;11.25;10.05;;;15.00;60.70;;;;;;5067868;28;20051;-49
2021/05/06 12:58:17;;;;;;;10.40;9.40;;;15.00;56.70;;;;;;5069950;28;20142;-46
2021/05/06 13:00:52;;;;;;;10.63;8.77;;;15.00;56.50;;;;;;5074944;28;20123;-49
2021/05/06 13:03:35;;;;;;;10.40;9.40;;;14.90;54.40;;;;;;5062840;28;20040;-46
2021/05/06 13:06:13;;;;;;;13.75;11.73;;;14.80;54.20;;;;;;5073083;28;20461;-42
2021/05/06 13:08:45;;;;;;;12.07;10.88;;;14.50;53.20;;;;;;5065991;28;20094;-45
2021/05/06 13:11:19;;;;;;;10.73;9.65;;;14.50;55.50;;;;;;5070733;28;20090;-45
2021/05/06 13:13:49;;;;;;;13.30;10.15;;;14.90;54.30;;;;;;5044531;28;20524;-46
2021/05/06 13:16:38;;;;;;;16.98;15.15;;;14.70;55.30;;;;;;5069345;28;20072;-44
2021/05/06 13:19:10;;;;;;;11.20;10.13;;;14.40;55.50;;;;;;5052309;28;20055;-44
2021/05/06 13:21:49;;;;;;;10.82;9.57;;;14.60;56.50;;;;;;5062144;28;20127;-43
2021/05/06 13:24:19;;;;;;;9.05;7.55;;;14.50;55.20;;;;;;5045528;28;20053;-46
2021/05/06 13:26:51;;;;;;;11.63;9.73;;;14.60;54.30;;;;;;5060728;28;20055;-44
2021/05/06 13:29:21;;;;;;;13.75;12.32;;;14.30;55.40;;;;;;5145782;27;20066;-45
2021/05/06 13:31:50;;;;;;;52.15;44.45;;;13.90;56.20;;;;;;5167660;27;20102;-47
2021/05/06 13:34:26;;;;;;;19.80;16.92;;;13.50;57.20;;;;;;5165824;27;20050;-47
2021/05/06 13:37:01;;;;;;;14.18;12.68;;;13.20;59.80;;;;;;5178260;27;20839;-45
2021/05/06 13:39:32;;;;;;;8.45;7.50;;;12.90;60.80;;;;;;5151905;27;20065;-44
2021/05/06 13:42:07;;;;;;;10.68;9.55;;;12.50;64.30;;;;;;5171396;27;20065;-46
2021/05/06 13:44:34;;;;;;;11.68;9.63;;;12.00;64.30;;;;;;5169478;27;20046;-46
2021/05/06 13:47:06;;;;;;;8.00;7.20;;;11.60;65.00;;;;;;5172089;27;20285;-48
2021/05/06 13:49:35;;;;;;;9.82;8.15;;;11.40;66.50;;;;;;5152366;27;20137;-48
2021/05/06 13:52:04;;;;;;;15.80;12.98;;;11.10;68.10;;;;;;5152553;27;20069;-45
2021/05/06 13:54:34;;;;;;;10.13;8.88;;;11.10;68.40;;;;;;5171740;27;20046;-51
2021/05/06 13:57:03;;;;;;;11.20;10.05;;;10.90;68.60;;;;;;5168618;27;20169;-45
2021/05/06 13:59:33;;;;;;;16.75;15.00;;;10.80;70.30;;;;;;5171071;27;20133;-46
2021/05/06 14:02:01;;;;;;;55.47;46.05;;;10.70;74.40;;;;;;5168538;27;20057;-48
2021/05/06 14:04:27;;;;;;;11.27;9.80;;;10.40;74.80;;;;;;5165670;27;20499;-49
2021/05/06 14:06:54;;;;;;;20.70;17.52;;;10.30;77.00;;;;;;5168428;27;20061;-50
2021/05/06 14:09:25;;;;;;;12.63;9.73;;;10.00;81.20;;;;;;5170415;27;20090;-46
2021/05/06 14:11:53;;;;;;;11.65;10.50;;;9.70;82.80;;;;;;5171414;27;20046;-44
2021/05/06 14:14:20;;;;;;;9.70;8.70;;;9.40;85.70;;;;;;5168605;27;20142;-47
2021/05/06 14:16:47;;;;;;;8.65;7.35;;;9.20;84.50;;;;;;5150556;27;20397;-43
2021/05/06 14:19:14;;;;;;;8.45;7.15;;;8.90;83.60;;;;;;5162846;27;20513;-44
2021/05/06 14:21:46;;;;;;;7.45;6.63;;;8.80;82.00;;;;;;5170443;27;20469;-41
2021/05/06 14:24:12;;;;;;;;;;;8.40;85.30;;;;;;5170926;27;20050;-42
2021/05/06 14:26:44;;;;;;;7.22;6.53;;;8.40;89.10;;;;;;5170384;27;19922;-40
2021/05/06 14:29:11;;;;;;;;;;;8.60;84.10;;;;;;5170267;27;20046;-41
2021/05/06 14:31:39;;;;;;;8.63;7.78;;;8.60;86.10;;;;;;5170323;27;20505;-41
2021/05/06 14:34:06;;;;;;;9.15;8.00;;;8.30;84.60;;;;;;5170314;27;20042;-43
2021/05/06 14:36:32;;;;;;;11.07;9.63;;;8.40;86.80;;;;;;5169815;27;20050;-41
2021/05/06 14:39:02;;;;;;;10.10;9.10;;;8.40;86.30;;;;;;5168536;27;20126;-41
2021/05/06 14:41:29;;;;;;;10.23;9.20;;;8.50;86.80;;;;;;5169975;27;20050;-41
2021/05/06 14:43:57;;;;;;;19.67;17.58;;;8.60;85.20;;;;;;5169667;27;20081;-41
2021/05/06 14:46:26;;;;;;;17.60;15.05;;;8.80;85.00;;;;;;5170073;27;20061;-42
2021/05/06 14:48:54;;;;;;;16.10;14.13;;;8.90;85.30;;;;;;5169163;27;20402;-40
2021/05/06 14:51:26;;;;;;;10.48;9.48;;;9.00;85.00;;;;;;5167824;27;20481;-40
2021/05/06 14:53:52;;;;;;;10.77;9.68;;;9.00;86.00;;;;;;5170854;27;20514;-41
2021/05/06 14:56:19;;;;;;;15.40;13.00;;;9.00;85.60;;;;;;5170600;27;20663;-43
2021/05/06 14:58:51;;;;;;;12.75;11.52;;;9.20;85.80;;;;;;5168835;27;20649;-43
2021/05/06 15:01:17;;;;;;;23.52;19.65;;;9.30;86.50;;;;;;5170390;27;20084;-42
2021/05/06 15:03:43;;;;;;;8.80;7.90;;;9.50;85.00;;;;;;5168540;27;20067;-42
2021/05/06 15:06:09;;;;;;;11.80;10.75;;;9.70;85.10;;;;;;5169136;27;20294;-42
2021/05/06 15:08:41;;;;;;;11.65;10.50;;;10.00;87.40;;;;;;5167935;27;20519;-42
2021/05/06 15:11:08;;;;;;;;;;;10.20;86.30;;;;;;5169697;27;20050;-44
2021/05/06 15:13:36;;;;;;;16.70;15.10;;;10.40;88.80;;;;;;5168859;27;19990;-40
2021/05/06 15:16:05;;;;;;;21.85;19.98;;;10.60;87.80;;;;;;5168546;27;20526;-43
2021/05/06 15:18:31;;;;;;;17.95;16.45;;;10.80;88.60;;;;;;5166496;27;20485;-42
2021/05/06 15:21:00;;;;;;;13.07;11.88;;;10.90;85.00;;;;;;5167923;27;20047;-42
2021/05/06 15:23:29;;;;;;;12.60;11.50;;;11.00;85.40;;;;;;5169806;27;20100;-42
2021/05/06 15:25:57;;;;;;;10.18;9.18;;;10.90;85.00;;;;;;5168245;27;20339;-41
2021/05/06 15:28:26;;;;;;;9.35;8.40;;;10.90;84.60;;;;;;5168537;27;20041;-42
2021/05/06 15:30:54;;;;;;;9.80;8.90;;;10.60;84.20;;;;;;5169734;27;20046;-41
2021/05/06 15:33:23;;;;;;;7.90;7.10;;;10.40;84.00;;;;;;5168720;27;20060;-42
2021/05/06 15:35:50;;;;;;;9.13;7.78;;;10.30;83.60;;;;;;5168880;27;20047;-43
2021/05/06 15:38:20;;;;;;;8.45;7.55;;;10.20;84.80;;;;;;5168611;27;20535;-44
2021/05/06 15:40:51;;;;;;;7.70;7.00;;;10.10;84.80;;;;;;5168282;27;20198;-41
2021/05/06 15:43:23;;;;;;;7.38;6.03;;;10.00;85.10;;;;;;5170586;27;20125;-43
2021/05/06 15:45:49;;;;;;;;;;;10.00;85.30;;;;;;5162714;27;20094;-41
2021/05/06 15:48:17;;;;;;;6.75;5.78;;;9.80;86.70;;;;;;5169040;27;19922;-41
2021/05/06 15:50:44;;;;;;;7.03;5.70;;;9.80;85.80;;;;;;5171273;27;20042;-41
2021/05/06 15:53:10;;;;;;;7.22;5.60;;;9.50;85.20;;;;;;5168742;27;20065;-42
2021/05/06 15:55:36;;;;;;;5.50;4.95;;;9.50;86.10;;;;;;5167033;27;20053;-42
2021/05/06 15:58:04;;;;;;;7.90;6.20;;;9.40;85.50;;;;;;5168097;27;20073;-42
2021/05/06 16:00:31;;;;;;;7.22;5.63;;;9.30;86.10;;;;;;5148281;27;20038;-41
2021/05/06 16:03:03;;;;;;;7.45;6.70;;;9.40;87.40;;;;;;5168674;27;20689;-42
2021/05/06 16:05:30;;;;;;;5.95;5.35;;;9.40;87.50;;;;;;5149125;27;20056;-41
2021/05/06 16:07:57;;;;;;;8.27;5.72;;;9.30;86.10;;;;;;5168356;27;20057;-41
2021/05/06 16:10:24;;;;;;;7.43;5.97;;;9.20;86.20;;;;;;5167482;27;20042;-41
2021/05/06 16:12:51;;;;;;;5.80;5.30;;;9.30;86.70;;;;;;5167335;27;20117;-41
2021/05/06 16:15:17;;;;;;;7.10;5.95;;;9.10;86.10;;;;;;5164885;27;20412;-41
2021/05/06 16:17:44;;;;;;;5.78;5.18;;;9.00;86.60;;;;;;5166635;27;20042;-43
2021/05/06 16:20:18;;;;;;;7.00;5.60;;;9.10;87.30;;;;;;5165738;27;20067;-42
2021/05/06 16:22:47;;;;;;;6.43;5.50;;;9.10;87.60;;;;;;5165884;27;20046;-41
2021/05/06 16:25:16;;;;;;;6.50;5.57;;;9.00;87.00;;;;;;5166335;27;20042;-40
2021/05/06 16:27:45;;;;;;;8.25;7.20;;;9.00;87.20;;;;;;5164202;27;20083;-42
2021/05/06 16:30:17;;;;;;;6.75;5.68;;;9.00;86.80;;;;;;5166206;27;20524;-41
2021/05/06 16:32:47;;;;;;;6.35;5.05;;;9.00;87.10;;;;;;5169844;27;20045;-43
2021/05/06 16:35:20;;;;;;;7.10;4.63;;;9.10;86.40;;;;;;5167709;27;20441;-40